sensor_id;sensor_type;location;lat;lon;timestamp;pressure;altitude;pressure_sealevel;temperature;humidity
58775;BME280;44545;47.480;19.024;2023-03-14T04:10:45;99074.06;;;6.11;70.51
58775;BME280;44545;47.480;19.024;2023-03-14T04:13:48;99074.06;;;6.11;70.51
58775;BME280;44545;47.480;19.024;2023-03-14T04:16:51;99080.88;;;5.43;72.22
58775;BME280;44545;47.480;19.024;2023-03-14T04:19:54;99065.44;;;5.61;71.76
58775;BME280;44545;47.480;19.024;2023-03-14T04:22:58;99055.69;;;5.90;70.75
58775;BME280;44545;47.480;19.024;2023-03-14T04:26:00;99047.81;;;6.03;70.07
58775;BME280;44545;47.480;19.024;2023-03-14T04:29:04;99055.72;;;6.06;70.00
58775;BME280;44545;47.480;19.024;2023-03-14T04:32:07;99061.47;;;6.00;70.21
58775;BME280;44545;47.480;19.024;2023-03-14T04:35:10;99066.66;;;6.00;70.50
58775;BME280;44545;47.480;19.024;2023-03-14T04:38:13;99065.44;;;5.94;70.86
58775;BME280;44545;47.480;19.024;2023-03-14T04:41:17;99065.91;;;6.03;70.78
58775;BME280;44545;47.480;19.024;2023-03-14T04:44:20;99064.66;;;6.13;70.29
58775;BME280;44545;47.480;19.024;2023-03-14T04:47:24;99064.47;;;6.26;69.79
58775;BME280;44545;47.480;19.024;2023-03-14T04:50:27;99067.06;;;6.26;69.82
58775;BME280;44545;47.480;19.024;2023-03-14T04:53:30;99068.03;;;6.28;69.68
58775;BME280;44545;47.480;19.024;2023-03-14T04:56:34;99067.34;;;6.32;69.58
58775;BME280;44545;47.480;19.024;2023-03-14T04:59:37;99071.00;;;6.36;69.48
58775;BME280;44545;47.480;19.024;2023-03-14T05:02:41;99065.75;;;6.34;69.33
58775;BME280;44545;47.480;19.024;2023-03-14T05:05:45;99064.34;;;6.41;69.13
58775;BME280;44545;47.480;19.024;2023-03-14T05:08:48;99058.25;;;6.40;69.10
58775;BME280;44545;47.480;19.024;2023-03-14T05:11:51;99059.19;;;6.41;68.77
58775;BME280;44545;47.480;19.024;2023-03-14T05:14:54;99060.66;;;6.36;69.27
58775;BME280;44545;47.480;19.024;2023-03-14T05:17:56;99051.56;;;6.44;68.76
58775;BME280;44545;47.480;19.024;2023-03-14T05:21:00;99052.06;;;6.55;68.47
58775;BME280;44545;47.480;19.024;2023-03-14T05:24:02;99046.59;;;6.66;67.98
58775;BME280;44545;47.480;19.024;2023-03-14T05:27:05;99047.09;;;6.77;67.18
58775;BME280;44545;47.480;19.024;2023-03-14T05:30:08;99040.66;;;6.87;66.89
58775;BME280;44545;47.480;19.024;2023-03-14T05:33:11;99035.22;;;7.00;66.21
58775;BME280;44545;47.480;19.024;2023-03-14T05:36:14;99040.03;;;7.10;65.77
58775;BME280;44545;47.480;19.024;2023-03-14T05:39:20;99028.81;;;7.29;64.84
58775;BME280;44545;47.480;19.024;2023-03-14T05:42:23;99031.72;;;7.56;63.12
58775;BME280;44545;47.480;19.024;2023-03-14T05:45:25;99028.91;;;7.71;62.89
58775;BME280;44545;47.480;19.024;2023-03-14T05:48:28;99039.69;;;8.21;60.99
58775;BME280;44545;47.480;19.024;2023-03-14T05:51:31;99041.41;;;8.62;59.63
58775;BME280;44545;47.480;19.024;2023-03-14T05:54:34;99038.38;;;8.95;58.55
58775;BME280;44545;47.480;19.024;2023-03-14T05:57:36;99035.97;;;9.46;56.33
58775;BME280;44545;47.480;19.024;2023-03-14T06:00:41;99028.59;;;10.32;53.80
58775;BME280;44545;47.480;19.024;2023-03-14T06:03:45;99031.81;;;10.78;51.54
58775;BME280;44545;47.480;19.024;2023-03-14T06:06:48;99026.03;;;11.77;49.12
58775;BME280;44545;47.480;19.024;2023-03-14T06:09:51;99010.09;;;13.45;45.01
58775;BME280;44545;47.480;19.024;2023-03-14T06:12:53;99014.47;;;14.92;41.06
58775;BME280;44545;47.480;19.024;2023-03-14T06:15:56;99006.44;;;15.45;39.77
58775;BME280;44545;47.480;19.024;2023-03-14T06:18:58;99010.94;;;16.38;38.08
58775;BME280;44545;47.480;19.024;2023-03-14T06:22:02;99014.81;;;16.78;36.10
58775;BME280;44545;47.480;19.024;2023-03-14T06:25:06;99007.09;;;17.07;35.58
58775;BME280;44545;47.480;19.024;2023-03-14T06:28:09;99004.03;;;16.52;36.09
58775;BME280;44545;47.480;19.024;2023-03-14T06:31:12;99010.34;;;15.11;38.41
58775;BME280;44545;47.480;19.024;2023-03-14T06:34:14;99012.97;;;13.59;41.06
58775;BME280;44545;47.480;19.024;2023-03-14T06:37:17;99012.31;;;12.51;43.58
58775;BME280;44545;47.480;19.024;2023-03-14T06:40:23;99019.59;;;12.29;44.93
58775;BME280;44545;47.480;19.024;2023-03-14T06:43:25;99017.31;;;12.42;44.74
58775;BME280;44545;47.480;19.024;2023-03-14T06:46:29;99017.87;;;11.97;45.74
58775;BME280;44545;47.480;19.024;2023-03-14T06:49:31;99019.97;;;11.78;46.27
58775;BME280;44545;47.480;19.024;2023-03-14T06:52:34;99024.44;;;11.82;46.66
58775;BME280;44545;47.480;19.024;2023-03-14T06:55:37;99019.59;;;11.64;46.94
58775;BME280;44545;47.480;19.024;2023-03-14T06:58:40;99021.59;;;11.75;46.82
58775;BME280;44545;47.480;19.024;2023-03-14T07:01:43;99028.62;;;11.45;47.66
58775;BME280;44545;47.480;19.024;2023-03-14T07:04:45;99025.34;;;11.22;47.78
58775;BME280;44545;47.480;19.024;2023-03-14T07:07:48;99031.63;;;11.29;48.08
58775;BME280;44545;47.480;19.024;2023-03-14T07:10:51;99032.63;;;11.34;48.33
58775;BME280;44545;47.480;19.024;2023-03-14T07:13:53;99029.50;;;11.46;48.18
58775;BME280;44545;47.480;19.024;2023-03-14T07:16:56;99024.19;;;12.03;47.24
58775;BME280;44545;47.480;19.024;2023-03-14T07:19:58;99023.09;;;11.95;46.85
58775;BME280;44545;47.480;19.024;2023-03-14T07:23:04;99021.34;;;11.96;47.02
58775;BME280;44545;47.480;19.024;2023-03-14T07:26:07;99029.06;;;12.24;46.52
58775;BME280;44545;47.480;19.024;2023-03-14T07:29:11;99014.00;;;12.49;46.05
58775;BME280;44545;47.480;19.024;2023-03-14T07:32:14;99021.19;;;12.95;45.03
58775;BME280;44545;47.480;19.024;2023-03-14T07:35:17;99017.28;;;13.14;44.53
58775;BME280;44545;47.480;19.024;2023-03-14T07:38:19;99014.81;;;13.64;43.75
58775;BME280;44545;47.480;19.024;2023-03-14T07:41:25;98998.84;;;13.96;42.92
58775;BME280;44545;47.480;19.024;2023-03-14T07:44:32;98992.97;;;14.09;42.54
58775;BME280;44545;47.480;19.024;2023-03-14T07:47:35;99000.53;;;13.47;44.09
58775;BME280;44545;47.480;19.024;2023-03-14T07:50:37;98983.53;;;13.71;43.87
58775;BME280;44545;47.480;19.024;2023-03-14T07:53:40;98988.50;;;14.04;43.08
58775;BME280;44545;47.480;19.024;2023-03-14T07:56:42;98980.25;;;14.31;42.66
58775;BME280;44545;47.480;19.024;2023-03-14T07:59:44;98985.31;;;14.22;42.89
58775;BME280;44545;47.480;19.024;2023-03-14T08:02:46;98975.22;;;14.45;42.48
58775;BME280;44545;47.480;19.024;2023-03-14T08:05:50;98963.81;;;15.01;41.66
58775;BME280;44545;47.480;19.024;2023-03-14T08:08:52;98960.84;;;15.40;40.52
58775;BME280;44545;47.480;19.024;2023-03-14T08:11:55;98962.47;;;15.30;41.09
58775;BME280;44545;47.480;19.024;2023-03-14T08:14:59;98943.16;;;15.25;41.00
58775;BME280;44545;47.480;19.024;2023-03-14T08:18:02;98944.47;;;15.63;40.63
58775;BME280;44545;47.480;19.024;2023-03-14T08:21:05;98926.06;;;15.64;40.57
58775;BME280;44545;47.480;19.024;2023-03-14T08:24:08;98928.16;;;15.94;40.36
58775;BME280;44545;47.480;19.024;2023-03-14T08:27:10;98933.53;;;16.08;39.90
58775;BME280;44545;47.480;19.024;2023-03-14T08:30:15;98942.06;;;15.82;40.32
58775;BME280;44545;47.480;19.024;2023-03-14T08:33:17;98938.00;;;16.18;40.01
58775;BME280;44545;47.480;19.024;2023-03-14T08:36:20;98922.34;;;16.34;39.03
58775;BME280;44545;47.480;19.024;2023-03-14T08:39:25;98925.94;;;16.45;39.47
58775;BME280;44545;47.480;19.024;2023-03-14T08:42:29;98923.25;;;16.36;39.91
58775;BME280;44545;47.480;19.024;2023-03-14T08:45:33;98916.63;;;16.96;38.38
58775;BME280;44545;47.480;19.024;2023-03-14T08:48:37;98910.63;;;17.25;37.74
58775;BME280;44545;47.480;19.024;2023-03-14T08:51:39;98909.84;;;17.69;36.74
58775;BME280;44545;47.480;19.024;2023-03-14T08:54:45;98911.63;;;17.77;36.64
58775;BME280;44545;47.480;19.024;2023-03-14T08:57:47;98901.84;;;17.32;37.23
58775;BME280;44545;47.480;19.024;2023-03-14T09:00:50;98899.38;;;18.33;36.25
58775;BME280;44545;47.480;19.024;2023-03-14T09:03:52;98881.53;;;19.23;33.74
58775;BME280;44545;47.480;19.024;2023-03-14T09:06:55;98885.81;;;19.45;33.60
58775;BME280;44545;47.480;19.024;2023-03-14T09:09:57;98883.88;;;19.77;33.03
58775;BME280;44545;47.480;19.024;2023-03-14T09:12:59;98890.94;;;19.78;32.99
58775;BME280;44545;47.480;19.024;2023-03-14T09:16:02;98888.69;;;18.95;33.76
58775;BME280;44545;47.480;19.024;2023-03-14T09:19:05;98873.78;;;18.72;34.95
58775;BME280;44545;47.480;19.024;2023-03-14T09:22:07;98878.25;;;18.36;34.81
58775;BME280;44545;47.480;19.024;2023-03-14T09:25:10;98880.84;;;17.72;36.49
58775;BME280;44545;47.480;19.024;2023-03-14T09:28:12;98850.97;;;18.51;34.89
58775;BME280;44545;47.480;19.024;2023-03-14T09:31:15;98845.41;;;20.42;31.91
58775;BME280;44545;47.480;19.024;2023-03-14T09:34:17;98840.19;;;20.36;31.76
58775;BME280;44545;47.480;19.024;2023-03-14T09:37:21;98838.12;;;19.59;32.87
58775;BME280;44545;47.480;19.024;2023-03-14T09:40:24;98836.63;;;19.24;33.40
58775;BME280;44545;47.480;19.024;2023-03-14T09:43:29;98821.81;;;20.21;32.01
58775;BME280;44545;47.480;19.024;2023-03-14T09:46:35;98825.34;;;21.02;31.08
58775;BME280;44545;47.480;19.024;2023-03-14T09:49:39;98813.00;;;20.97;31.30
58775;BME280;44545;47.480;19.024;2023-03-14T09:52:45;98817.09;;;21.21;30.92
58775;BME280;44545;47.480;19.024;2023-03-14T09:55:50;98792.13;;;21.95;29.40
58775;BME280;44545;47.480;19.024;2023-03-14T09:59:03;98810.66;;;21.97;29.99
58775;BME280;44545;47.480;19.024;2023-03-14T10:02:34;98789.03;;;23.86;27.15
58775;BME280;44545;47.480;19.024;2023-03-14T10:05:40;98792.38;;;24.61;26.07
58775;BME280;44545;47.480;19.024;2023-03-14T10:08:44;98771.88;;;26.81;23.97
58775;BME280;44545;47.480;19.024;2023-03-14T10:11:47;98759.00;;;27.82;22.51
58775;BME280;44545;47.480;19.024;2023-03-14T10:14:51;98758.16;;;29.94;20.81
58775;BME280;44545;47.480;19.024;2023-03-14T10:17:54;98749.94;;;30.50;19.64
58775;BME280;44545;47.480;19.024;2023-03-14T10:21:09;98752.22;;;30.05;18.61
58775;BME280;44545;47.480;19.024;2023-03-14T10:27:29;98734.91;;;30.45;18.38
58775;BME280;44545;47.480;19.024;2023-03-14T10:30:39;98729.72;;;30.92;17.93
58775;BME280;44545;47.480;19.024;2023-03-14T10:34:01;98712.84;;;28.37;20.21
58775;BME280;44545;47.480;19.024;2023-03-14T10:37:24;98717.00;;;26.46;22.14
58775;BME280;44545;47.480;19.024;2023-03-14T10:40:33;98722.72;;;25.32;23.84
58775;BME280;44545;47.480;19.024;2023-03-14T10:43:40;98714.41;;;24.22;25.04
58775;BME280;44545;47.480;19.024;2023-03-14T10:46:42;98713.00;;;24.09;25.65
58775;BME280;44545;47.480;19.024;2023-03-14T10:50:21;98697.97;;;23.73;25.75
58775;BME280;44545;47.480;19.024;2023-03-14T10:53:25;98693.72;;;25.21;24.54
58775;BME280;44545;47.480;19.024;2023-03-14T10:56:36;98688.09;;;25.57;23.72
58775;BME280;44545;47.480;19.024;2023-03-14T10:59:41;98691.34;;;26.42;22.88
58775;BME280;44545;47.480;19.024;2023-03-14T11:02:58;98682.34;;;26.44;22.63
58775;BME280;44545;47.480;19.024;2023-03-14T11:06:12;98670.34;;;27.23;21.55
58775;BME280;44545;47.480;19.024;2023-03-14T11:12:28;98673.66;;;26.14;22.92
58775;BME280;44545;47.480;19.024;2023-03-14T11:19:00;98659.31;;;23.93;25.54
58775;BME280;44545;47.480;19.024;2023-03-14T11:22:21;98634.03;;;28.79;20.58
58775;BME280;44545;47.480;19.024;2023-03-14T11:28:41;98627.09;;;29.99;18.99
58775;BME280;44545;47.480;19.024;2023-03-14T11:31:50;98619.88;;;26.92;21.89
58775;BME280;44545;47.480;19.024;2023-03-14T11:34:59;98637.41;;;23.82;25.79
58775;BME280;44545;47.480;19.024;2023-03-14T11:41:29;98634.19;;;22.60;27.68
58775;BME280;44545;47.480;19.024;2023-03-14T11:44:36;98634.81;;;22.31;28.38
58775;BME280;44545;47.480;19.024;2023-03-14T11:47:39;98623.22;;;22.73;27.87
58775;BME280;44545;47.480;19.024;2023-03-14T11:50:46;98625.28;;;25.71;24.37
58775;BME280;44545;47.480;19.024;2023-03-14T11:54:02;98607.47;;;27.12;22.52
58775;BME280;44545;47.480;19.024;2023-03-14T11:57:12;98611.78;;;25.51;24.04
58775;BME280;44545;47.480;19.024;2023-03-14T12:00:20;98608.13;;;24.13;26.01
58775;BME280;44545;47.480;19.024;2023-03-14T12:03:35;98596.41;;;23.54;26.65
58775;BME280;44545;47.480;19.024;2023-03-14T12:06:50;98596.03;;;23.01;27.66
58775;BME280;44545;47.480;19.024;2023-03-14T12:09:53;98591.66;;;22.61;27.86
58775;BME280;44545;47.480;19.024;2023-03-14T12:12:57;98595.97;;;22.26;28.46
58775;BME280;44545;47.480;19.024;2023-03-14T12:16:04;98593.56;;;22.13;28.42
58775;BME280;44545;47.480;19.024;2023-03-14T12:22:30;98592.06;;;21.56;28.85
58775;BME280;44545;47.480;19.024;2023-03-14T12:25:33;98582.84;;;21.75;28.62
58775;BME280;44545;47.480;19.024;2023-03-14T12:28:37;98591.94;;;21.62;29.22
58775;BME280;44545;47.480;19.024;2023-03-14T12:31:45;98577.22;;;21.47;29.43
58775;BME280;44545;47.480;19.024;2023-03-14T12:34:49;98575.63;;;21.35;29.88
58775;BME280;44545;47.480;19.024;2023-03-14T12:37:55;98582.22;;;21.11;30.37
58775;BME280;44545;47.480;19.024;2023-03-14T12:41:03;98565.00;;;21.35;30.47
58775;BME280;44545;47.480;19.024;2023-03-14T12:54:21;98539.06;;;20.47;32.04
58775;BME280;44545;47.480;19.024;2023-03-14T12:57:37;98552.06;;;20.04;32.10
58775;BME280;44545;47.480;19.024;2023-03-14T13:00:51;98551.41;;;19.88;32.40
58775;BME280;44545;47.480;19.024;2023-03-14T13:03:57;98548.97;;;19.66;32.92
58775;BME280;44545;47.480;19.024;2023-03-14T13:07:11;98543.91;;;19.48;33.40
58775;BME280;44545;47.480;19.024;2023-03-14T13:10:24;98542.38;;;19.27;33.27
58775;BME280;44545;47.480;19.024;2023-03-14T13:13:27;98540.72;;;19.15;34.02
58775;BME280;44545;47.480;19.024;2023-03-14T13:16:30;98540.81;;;19.04;34.03
58775;BME280;44545;47.480;19.024;2023-03-14T13:19:33;98529.44;;;18.99;33.94
58775;BME280;44545;47.480;19.024;2023-03-14T13:22:36;98527.63;;;19.01;34.17
58775;BME280;44545;47.480;19.024;2023-03-14T13:25:40;98537.56;;;18.76;34.34
58775;BME280;44545;47.480;19.024;2023-03-14T13:28:43;98531.47;;;18.62;34.67
58775;BME280;44545;47.480;19.024;2023-03-14T13:32:21;98527.16;;;18.52;35.04
58775;BME280;44545;47.480;19.024;2023-03-14T13:35:28;98533.34;;;18.46;35.52
58775;BME280;44545;47.480;19.024;2023-03-14T13:38:34;98535.22;;;18.33;35.39
58775;BME280;44545;47.480;19.024;2023-03-14T13:41:36;98546.63;;;18.32;36.25
58775;BME280;44545;47.480;19.024;2023-03-14T13:44:39;98540.47;;;18.30;36.28
58775;BME280;44545;47.480;19.024;2023-03-14T13:47:41;98543.13;;;18.30;36.53
58775;BME280;44545;47.480;19.024;2023-03-14T13:50:56;98544.87;;;18.34;36.26
58775;BME280;44545;47.480;19.024;2023-03-14T13:54:00;98544.81;;;18.44;36.05
58775;BME280;44545;47.480;19.024;2023-03-14T13:57:05;98536.97;;;18.31;36.25
58775;BME280;44545;47.480;19.024;2023-03-14T14:00:19;98539.59;;;18.34;36.53
58775;BME280;44545;47.480;19.024;2023-03-14T14:03:23;98539.53;;;18.44;35.76
58775;BME280;44545;47.480;19.024;2023-03-14T14:09:59;98551.00;;;18.36;35.58
58775;BME280;44545;47.480;19.024;2023-03-14T14:13:03;98541.31;;;18.40;35.23
58775;BME280;44545;47.480;19.024;2023-03-14T14:16:06;98524.59;;;18.39;35.28
58775;BME280;44545;47.480;19.024;2023-03-14T14:19:10;98526.19;;;18.60;34.94
58775;BME280;44545;47.480;19.024;2023-03-14T14:22:14;98524.31;;;18.78;34.96
58775;BME280;44545;47.480;19.024;2023-03-14T14:25:16;98535.50;;;19.06;34.50
58775;BME280;44545;47.480;19.024;2023-03-14T14:28:29;98527.38;;;19.26;34.01
58775;BME280;44545;47.480;19.024;2023-03-14T14:31:32;98522.87;;;19.36;34.42
58775;BME280;44545;47.480;19.024;2023-03-14T14:34:46;98524.78;;;19.24;34.61
58775;BME280;44545;47.480;19.024;2023-03-14T14:37:52;98517.00;;;19.09;34.96
58775;BME280;44545;47.480;19.024;2023-03-14T14:40:59;98521.47;;;19.01;34.91
58775;BME280;44545;47.480;19.024;2023-03-14T14:44:04;98518.78;;;19.04;34.97
58775;BME280;44545;47.480;19.024;2023-03-14T14:47:07;98522.41;;;18.94;35.25
58775;BME280;44545;47.480;19.024;2023-03-14T14:53:36;98507.69;;;18.65;35.77
58775;BME280;44545;47.480;19.024;2023-03-14T14:56:39;98519.03;;;18.75;35.09
58775;BME280;44545;47.480;19.024;2023-03-14T14:59:42;98503.12;;;18.86;35.34
58775;BME280;44545;47.480;19.024;2023-03-14T15:02:47;98509.34;;;18.78;35.33
58775;BME280;44545;47.480;19.024;2023-03-14T15:05:50;98509.38;;;18.72;35.39
58775;BME280;44545;47.480;19.024;2023-03-14T15:08:52;98508.59;;;18.62;35.43
58775;BME280;44545;47.480;19.024;2023-03-14T15:11:55;98513.88;;;18.58;35.50
58775;BME280;44545;47.480;19.024;2023-03-14T15:14:57;98519.38;;;18.33;35.73
58775;BME280;44545;47.480;19.024;2023-03-14T15:17:59;98518.59;;;18.19;35.82
58775;BME280;44545;47.480;19.024;2023-03-14T15:21:02;98531.81;;;18.16;36.40
58775;BME280;44545;47.480;19.024;2023-03-14T15:24:05;98537.19;;;17.94;36.25
58775;BME280;44545;47.480;19.024;2023-03-14T15:27:13;98543.38;;;17.78;36.87
58775;BME280;44545;47.480;19.024;2023-03-14T15:30:17;98541.66;;;17.72;37.05
58775;BME280;44545;47.480;19.024;2023-03-14T15:33:20;98537.34;;;17.53;37.76
58775;BME280;44545;47.480;19.024;2023-03-14T15:36:26;98546.16;;;17.37;37.86
58775;BME280;44545;47.480;19.024;2023-03-14T15:39:29;98547.94;;;17.30;37.76
58775;BME280;44545;47.480;19.024;2023-03-14T15:42:31;98547.06;;;17.23;37.82
58775;BME280;44545;47.480;19.024;2023-03-14T15:45:34;98557.62;;;17.16;38.11
58775;BME280;44545;47.480;19.024;2023-03-14T15:48:37;98569.94;;;17.04;38.46
58775;BME280;44545;47.480;19.024;2023-03-14T15:51:39;98591.00;;;16.95;39.05
58775;BME280;44545;47.480;19.024;2023-03-14T15:54:42;98610.25;;;16.66;45.00
58775;BME280;44545;47.480;19.024;2023-03-14T15:57:44;98624.22;;;16.32;47.95
58775;BME280;44545;47.480;19.024;2023-03-14T16:00:49;98640.72;;;15.94;53.85
58775;BME280;44545;47.480;19.024;2023-03-14T16:03:51;98635.13;;;15.40;60.19
58775;BME280;44545;47.480;19.024;2023-03-14T16:06:54;98632.25;;;15.08;63.88
58775;BME280;44545;47.480;19.024;2023-03-14T16:09:57;98639.84;;;14.76;69.35
58775;BME280;44545;47.480;19.024;2023-03-14T16:12:59;98643.94;;;14.50;71.84
58775;BME280;44545;47.480;19.024;2023-03-14T16:16:03;98624.44;;;14.24;74.75
58775;BME280;44545;47.480;19.024;2023-03-14T16:19:06;98629.31;;;13.93;77.82
